Time;durP1;ratioP1;P1;durP2;ratioP2;P2;SDS_P1;SDS_P2;PMS_P1;PMS_P2;Temp;Humidity;BMP_temperature;BMP_pressure;BME280_temperature;BME280_humidity;BME280_pressure;Samples;Min_cycle;Max_cycle;Signal;HPM_P1;HPM_P2
2021/10/16 00:00:15;;;;;;;55.42;34.72;;;9.40;99.90;;;;;;5056620;28;20174;-52
2021/10/16 00:02:40;;;;;;;57.17;35.47;;;9.50;99.90;;;;;;5040683;28;20073;-52
2021/10/16 00:05:07;;;;;;;57.20;34.92;;;9.50;99.90;;;;;;5089884;28;20055;-52
2021/10/16 00:07:33;;;;;;;48.85;30.83;;;9.50;99.90;;;;;;5089795;28;20044;-52
2021/10/16 00:09:59;;;;;;;54.65;34.40;;;9.50;99.90;;;;;;5055691;28;20032;-52
2021/10/16 00:12:25;;;;;;;52.75;33.35;;;9.50;99.90;;;;;;5089524;28;20036;-52
2021/10/16 00:14:51;;;;;;;49.90;33.53;;;9.60;99.90;;;;;;5089645;28;20561;-52
2021/10/16 00:17:16;;;;;;;56.05;34.75;;;9.60;99.90;;;;;;5039277;28;20052;-52
2021/10/16 00:19:42;;;;;;;53.83;34.67;;;9.50;99.90;;;;;;5091788;28;20078;-53
2021/10/16 00:22:10;;;;;;;50.22;32.25;;;9.60;99.90;;;;;;5093343;28;20032;-52
2021/10/16 00:24:36;;;;;;;52.38;32.10;;;9.60;99.90;;;;;;5093242;28;20173;-52
2021/10/16 00:27:02;;;;;;;52.58;34.67;;;9.60;99.90;;;;;;5093694;28;20020;-52
2021/10/16 00:29:28;;;;;;;46.58;29.20;;;9.50;99.90;;;;;;5078850;28;20036;-52
2021/10/16 00:31:54;;;;;;;50.90;31.95;;;9.50;99.90;;;;;;5072616;28;20051;-52
2021/10/16 00:34:19;;;;;;;52.65;32.97;;;9.50;99.90;;;;;;5075631;28;20383;-52
2021/10/16 00:36:45;;;;;;;61.55;36.65;;;9.40;99.90;;;;;;5074232;28;20195;-52
2021/10/16 00:39:11;;;;;;;53.53;31.75;;;9.50;99.90;;;;;;5039249;28;20042;-52
2021/10/16 00:41:37;;;;;;;50.95;32.65;;;9.40;99.90;;;;;;5074558;28;20467;-52
2021/10/16 00:44:23;;;;;;;47.53;27.42;;;9.50;99.90;;;;;;5074855;28;20021;-52
2021/10/16 00:46:56;;;;;;;51.88;33.65;;;9.40;99.90;;;;;;5039803;28;20123;-52
2021/10/16 00:49:23;;;;;;;52.92;34.78;;;9.50;99.90;;;;;;5075341;28;20452;-53
2021/10/16 00:51:49;;;;;;;47.95;29.80;;;9.60;99.90;;;;;;5074373;28;20028;-52
2021/10/16 00:54:15;;;;;;;59.28;36.33;;;9.60;99.90;;;;;;5074449;28;20032;-53
2021/10/16 00:56:43;;;;;;;60.78;35.88;;;9.60;99.90;;;;;;5074336;28;20128;-53
2021/10/16 00:59:10;;;;;;;61.72;37.15;;;9.70;99.90;;;;;;5073434;28;20051;-52
2021/10/16 01:01:37;;;;;;;58.45;35.90;;;9.80;99.90;;;;;;5074523;28;20028;-52
2021/10/16 01:04:04;;;;;;;60.67;38.63;;;9.70;99.90;;;;;;5073915;28;20037;-52
2021/10/16 01:06:31;;;;;;;53.92;34.80;;;9.80;99.90;;;;;;5074196;28;20048;-52
2021/10/16 01:08:58;;;;;;;60.92;36.67;;;9.80;99.90;;;;;;5073667;28;20086;-51
2021/10/16 01:11:36;;;;;;;59.15;35.42;;;9.80;99.90;;;;;;5072416;28;20112;-52
2021/10/16 01:14:07;;;;;;;63.65;38.70;;;9.80;99.90;;;;;;5074214;28;20431;-52
2021/10/16 01:16:35;;;;;;;57.55;35.65;;;9.80;99.90;;;;;;5072046;28;20101;-52
2021/10/16 01:19:01;;;;;;;57.80;37.35;;;9.80;99.90;;;;;;5073254;28;20472;-52
2021/10/16 01:21:31;;;;;;;55.45;34.22;;;9.80;99.90;;;;;;5074123;28;20025;-53
2021/10/16 01:23:58;;;;;;;61.55;37.58;;;9.70;99.90;;;;;;5055140;28;20127;-52
2021/10/16 01:26:28;;;;;;;63.75;38.30;;;9.70;99.90;;;;;;5055521;28;20064;-52
2021/10/16 01:28:56;;;;;;;63.55;38.28;;;9.80;99.90;;;;;;5073781;28;20033;-52
2021/10/16 01:31:24;;;;;;;60.17;35.33;;;9.80;99.90;;;;;;5055161;28;20032;-52
2021/10/16 01:33:50;;;;;;;63.35;37.25;;;9.80;99.90;;;;;;5073701;28;20020;-52
2021/10/16 01:36:16;;;;;;;69.80;37.35;;;9.80;99.90;;;;;;5073364;28;20375;-52
2021/10/16 01:38:42;;;;;;;63.08;36.97;;;9.80;99.90;;;;;;5073792;28;20420;-52
2021/10/16 01:41:08;;;;;;;57.22;35.30;;;9.90;99.90;;;;;;5072508;28;20456;-53
2021/10/16 01:43:34;;;;;;;64.13;37.45;;;10.00;99.90;;;;;;5073609;28;20104;-52
2021/10/16 01:46:00;;;;;;;66.07;37.55;;;10.10;99.90;;;;;;5071210;28;20431;-52
2021/10/16 01:48:26;;;;;;;63.13;36.63;;;10.10;99.90;;;;;;5054833;28;20032;-53
2021/10/16 01:50:53;;;;;;;53.30;35.13;;;10.00;99.90;;;;;;5073617;28;20518;-53
2021/10/16 01:53:20;;;;;;;59.17;37.35;;;9.90;99.90;;;;;;5073483;28;20078;-53
2021/10/16 01:55:46;;;;;;;53.17;34.72;;;9.90;99.90;;;;;;5072841;28;20044;-52
2021/10/16 01:58:15;;;;;;;54.42;34.17;;;10.00;99.90;;;;;;5074001;28;20103;-52
2021/10/16 02:00:44;;;;;;;57.28;35.22;;;9.80;99.90;;;;;;5054542;28;20040;-52
2021/10/16 02:03:11;;;;;;;50.35;29.88;;;10.00;99.90;;;;;;5070556;28;20033;-53
2021/10/16 02:05:42;;;;;;;59.65;35.95;;;9.80;99.90;;;;;;5054566;28;20048;-52
2021/10/16 02:08:09;;;;;;;65.50;34.73;;;9.90;99.90;;;;;;5072366;28;20032;-52
2021/10/16 02:10:35;;;;;;;57.40;34.55;;;9.90;99.90;;;;;;5072699;28;20035;-53
2021/10/16 02:13:01;;;;;;;63.67;36.38;;;9.90;99.90;;;;;;5071361;28;20035;-51
2021/10/16 02:15:27;;;;;;;54.72;32.08;;;10.00;99.90;;;;;;5021455;28;20040;-52
2021/10/16 02:17:53;;;;;;;66.43;36.20;;;9.90;99.90;;;;;;5087678;28;20036;-53
2021/10/16 02:20:19;;;;;;;64.60;35.70;;;10.00;99.90;;;;;;5054340;28;20041;-52
2021/10/16 02:22:45;;;;;;;60.13;35.95;;;10.00;99.90;;;;;;5020856;28;20055;-52
2021/10/16 02:25:10;;;;;;;58.35;32.80;;;10.00;99.90;;;;;;5072839;28;20036;-52
2021/10/16 02:27:36;;;;;;;55.42;31.23;;;9.90;99.90;;;;;;5073006;28;20365;-54
2021/10/16 02:30:03;;;;;;;55.25;33.72;;;9.90;99.90;;;;;;5072404;28;20035;-53
2021/10/16 02:32:29;;;;;;;62.05;34.10;;;9.90;99.90;;;;;;5070767;28;20040;-52
2021/10/16 02:34:55;;;;;;;47.08;28.98;;;9.90;99.90;;;;;;5072387;28;20031;-53
2021/10/16 02:37:20;;;;;;;57.03;34.00;;;10.00;99.90;;;;;;5087455;28;20049;-53
2021/10/16 02:39:46;;;;;;;49.97;30.88;;;10.00;99.90;;;;;;5053666;28;20094;-52
2021/10/16 02:42:12;;;;;;;54.92;33.42;;;10.00;99.90;;;;;;5072070;28;20052;-53
2021/10/16 02:44:38;;;;;;;55.85;31.38;;;10.00;99.90;;;;;;5070313;28;20365;-51
2021/10/16 02:47:04;;;;;;;58.20;31.83;;;10.00;99.90;;;;;;5029699;28;20048;-53
2021/10/16 02:49:30;;;;;;;55.35;31.80;;;10.00;99.90;;;;;;5031054;28;20030;-53
2021/10/16 02:51:56;;;;;;;49.85;31.02;;;10.10;99.90;;;;;;5030114;28;20045;-53
2021/10/16 02:54:22;;;;;;;46.63;30.33;;;10.00;99.90;;;;;;5013985;28;20065;-52
2021/10/16 02:56:48;;;;;;;50.65;28.85;;;10.00;99.90;;;;;;5029483;28;20045;-53
2021/10/16 02:59:14;;;;;;;50.92;27.92;;;9.70;99.90;;;;;;5030211;28;20076;-52
2021/10/16 03:01:40;;;;;;;51.90;30.30;;;9.60;99.90;;;;;;5013573;28;20469;-53
2021/10/16 03:04:06;;;;;;;43.20;25.58;;;9.80;99.90;;;;;;4981193;28;20041;-53
2021/10/16 03:06:32;;;;;;;55.15;30.50;;;9.70;99.90;;;;;;5013673;28;20152;-52
2021/10/16 03:08:58;;;;;;;55.60;31.65;;;9.80;99.90;;;;;;5030458;28;20034;-52
2021/10/16 03:11:23;;;;;;;52.70;31.27;;;9.90;99.90;;;;;;5029974;28;20057;-52
2021/10/16 03:13:49;;;;;;;49.78;30.60;;;9.90;99.90;;;;;;5029761;28;20417;-52
2021/10/16 03:16:17;;;;;;;53.55;30.83;;;10.00;99.90;;;;;;5029816;28;20037;-52
2021/10/16 03:18:43;;;;;;;51.53;31.13;;;10.10;99.90;;;;;;5045155;28;20036;-52
2021/10/16 03:21:09;;;;;;;53.55;31.90;;;10.10;99.90;;;;;;5071663;28;20056;-52
2021/10/16 03:23:35;;;;;;;50.53;29.75;;;10.10;99.90;;;;;;5072294;28;20525;-53
2021/10/16 03:26:01;;;;;;;56.45;31.05;;;10.10;99.90;;;;;;5071398;28;20033;-53
2021/10/16 03:28:27;;;;;;;52.83;30.48;;;10.00;99.90;;;;;;5072341;28;20676;-53
2021/10/16 03:30:53;;;;;;;51.17;30.45;;;10.10;99.90;;;;;;5072600;28;20467;-52
2021/10/16 03:33:19;;;;;;;51.03;28.30;;;10.00;99.90;;;;;;5071645;28;20033;-53
2021/10/16 03:35:45;;;;;;;48.83;28.75;;;10.10;99.90;;;;;;5071601;28;20025;-52
2021/10/16 03:38:10;;;;;;;52.00;30.65;;;10.00;99.90;;;;;;5070636;28;20446;-52
2021/10/16 03:40:36;;;;;;;49.28;29.60;;;10.00;99.90;;;;;;5086955;28;20086;-53
2021/10/16 03:43:02;;;;;;;52.85;30.25;;;10.00;99.90;;;;;;5052782;28;20044;-52
2021/10/16 03:45:28;;;;;;;43.65;26.17;;;10.00;99.90;;;;;;5071963;28;20028;-53
2021/10/16 03:47:54;;;;;;;46.60;27.17;;;9.80;99.90;;;;;;5072388;28;20035;-53
2021/10/16 03:50:20;;;;;;;52.60;28.92;;;9.90;99.90;;;;;;5086641;28;20044;-53
2021/10/16 03:52:46;;;;;;;49.90;28.90;;;9.90;99.90;;;;;;5070506;28;20036;-52
2021/10/16 03:55:12;;;;;;;40.33;26.45;;;10.00;99.90;;;;;;5051945;28;20068;-52
2021/10/16 03:57:38;;;;;;;43.40;25.73;;;9.90;99.90;;;;;;5054130;28;20492;-52
2021/10/16 04:00:05;;;;;;;40.95;23.73;;;9.80;99.90;;;;;;5053446;28;20068;-52
2021/10/16 04:02:31;;;;;;;30.25;18.70;;;9.80;99.90;;;;;;5027258;28;20508;-52
2021/10/16 04:04:56;;;;;;;44.95;26.58;;;9.70;99.90;;;;;;5053530;28;20052;-53
2021/10/16 04:07:22;;;;;;;42.70;24.98;;;9.60;99.90;;;;;;5053215;28;20048;-53
2021/10/16 04:09:48;;;;;;;40.90;25.45;;;9.60;99.90;;;;;;5053160;28;20029;-52
2021/10/16 04:12:14;;;;;;;29.60;18.65;;;9.70;99.90;;;;;;5053066;28;20468;-52
2021/10/16 04:14:40;;;;;;;46.63;25.48;;;9.60;99.90;;;;;;5053241;28;20449;-53
2021/10/16 04:17:05;;;;;;;45.92;26.13;;;9.50;99.90;;;;;;5019500;28;20057;-53
2021/10/16 04:19:31;;;;;;;33.90;22.20;;;9.60;99.90;;;;;;5031062;28;20407;-52
2021/10/16 04:21:57;;;;;;;43.95;26.25;;;9.50;99.90;;;;;;5053399;28;20431;-53
2021/10/16 04:24:23;;;;;;;38.22;23.15;;;9.70;99.90;;;;;;5036031;28;20869;-53
2021/10/16 04:26:49;;;;;;;33.35;19.83;;;9.80;99.90;;;;;;5035859;28;20518;-52
2021/10/16 04:29:15;;;;;;;43.10;25.92;;;9.70;99.90;;;;;;5052903;28;20392;-53
2021/10/16 04:31:41;;;;;;;42.42;24.70;;;9.90;99.90;;;;;;5054951;28;20389;-52
2021/10/16 04:34:09;;;;;;;38.72;24.23;;;9.90;99.90;;;;;;5072976;28;20119;-53
2021/10/16 04:36:34;;;;;;;40.78;24.80;;;9.90;99.90;;;;;;5074050;28;20048;-52
2021/10/16 04:39:00;;;;;;;38.50;23.83;;;10.00;99.90;;;;;;5074420;28;20464;-53
2021/10/16 04:41:27;;;;;;;33.95;20.50;;;10.00;99.90;;;;;;5074356;28;20030;-52
2021/10/16 04:43:53;;;;;;;43.33;25.70;;;9.90;99.90;;;;;;5074770;28;20055;-52
2021/10/16 04:46:23;;;;;;;44.83;26.33;;;9.90;99.90;;;;;;5075098;28;20071;-53
2021/10/16 04:48:48;;;;;;;36.70;23.27;;;10.00;99.90;;;;;;5015874;28;20033;-52
2021/10/16 04:51:15;;;;;;;40.92;25.35;;;10.00;99.90;;;;;;5032413;28;20090;-53
2021/10/16 04:53:40;;;;;;;40.25;27.33;;;10.00;99.90;;;;;;5033070;28;20447;-52
2021/10/16 04:56:06;;;;;;;30.73;19.30;;;10.00;99.90;;;;;;5015278;28;20132;-52
2021/10/16 04:58:33;;;;;;;40.20;24.65;;;9.90;99.90;;;;;;5032725;28;20048;-52
2021/10/16 05:00:58;;;;;;;42.95;25.05;;;10.10;99.90;;;;;;5032641;28;20076;-53
2021/10/16 05:03:24;;;;;;;38.17;24.42;;;10.10;99.90;;;;;;5032799;28;20092;-52
2021/10/16 05:05:53;;;;;;;40.47;24.63;;;10.10;99.90;;;;;;5031505;28;20049;-52
2021/10/16 05:08:19;;;;;;;36.30;22.65;;;10.20;99.90;;;;;;5015505;28;20041;-52
2021/10/16 05:10:45;;;;;;;48.17;25.33;;;10.20;99.90;;;;;;5032588;28;20109;-53
2021/10/16 05:13:10;;;;;;;49.13;29.13;;;10.20;99.90;;;;;;5032192;28;20045;-52
2021/10/16 05:15:37;;;;;;;39.53;25.45;;;10.20;99.90;;;;;;5032318;28;20033;-52
2021/10/16 05:18:03;;;;;;;37.78;25.27;;;10.20;99.90;;;;;;5031942;28;20091;-53
2021/10/16 05:20:29;;;;;;;43.15;27.52;;;10.10;99.90;;;;;;5032069;28;20464;-52
2021/10/16 05:22:54;;;;;;;42.55;24.35;;;10.20;99.90;;;;;;5032635;28;20088;-52
2021/10/16 05:25:20;;;;;;;39.53;24.73;;;10.20;99.90;;;;;;5036602;28;20127;-53
2021/10/16 05:27:49;;;;;;;36.33;23.35;;;9.60;99.90;;;;;;5072996;28;20032;-52
2021/10/16 05:30:17;;;;;;;36.88;22.67;;;10.20;99.90;;;;;;5072740;28;20041;-52
2021/10/16 05:32:43;;;;;;;34.75;21.15;;;10.10;99.90;;;;;;5071931;28;20601;-53
2021/10/16 05:35:09;;;;;;;31.88;21.55;;;10.20;99.90;;;;;;5072494;28;20028;-52
2021/10/16 05:37:35;;;;;;;32.38;21.73;;;10.00;99.90;;;;;;5036606;28;20060;-52
2021/10/16 05:40:01;;;;;;;33.10;21.83;;;10.00;99.90;;;;;;5071770;28;20079;-53
2021/10/16 05:42:26;;;;;;;34.58;22.83;;;10.00;99.90;;;;;;5072239;28;20039;-53
2021/10/16 05:44:52;;;;;;;40.80;25.00;;;10.00;99.90;;;;;;5070505;28;20033;-53
2021/10/16 05:47:18;;;;;;;38.45;23.75;;;10.10;99.90;;;;;;5072173;28;20035;-52
2021/10/16 05:49:44;;;;;;;37.78;24.35;;;10.10;99.90;;;;;;5069830;28;20086;-52
2021/10/16 05:52:10;;;;;;;32.10;19.90;;;10.20;99.90;;;;;;5064473;28;20037;-52
2021/10/16 05:54:36;;;;;;;34.03;22.63;;;10.10;99.90;;;;;;5072289;28;20021;-52
2021/10/16 05:57:01;;;;;;;31.00;21.23;;;10.10;99.90;;;;;;5069823;28;20139;-52
2021/10/16 05:59:27;;;;;;;25.80;16.10;;;10.10;99.90;;;;;;5064372;28;20044;-53
2021/10/16 06:01:53;;;;;;;33.03;21.67;;;9.90;99.90;;;;;;5071965;28;20060;-53
2021/10/16 06:04:19;;;;;;;33.25;22.02;;;9.90;99.90;;;;;;5072394;28;20020;-53
2021/10/16 06:06:45;;;;;;;35.40;23.00;;;9.90;99.90;;;;;;5069307;28;20083;-53
2021/10/16 06:09:10;;;;;;;33.17;22.52;;;10.10;99.90;;;;;;5053071;28;20036;-53
2021/10/16 06:11:36;;;;;;;29.85;20.27;;;10.10;99.90;;;;;;5069606;28;20045;-54
2021/10/16 06:14:02;;;;;;;33.80;21.30;;;10.10;99.90;;;;;;5069901;28;20051;-53
2021/10/16 06:16:28;;;;;;;31.15;20.92;;;10.20;99.90;;;;;;5071088;28;20399;-52
2021/10/16 06:18:54;;;;;;;33.13;21.67;;;10.20;99.90;;;;;;5035124;28;20040;-52
2021/10/16 06:21:20;;;;;;;30.60;20.83;;;10.30;99.90;;;;;;5069290;28;20029;-53
2021/10/16 06:23:46;;;;;;;32.88;21.98;;;10.30;99.90;;;;;;5069374;28;20048;-52
2021/10/16 06:26:12;;;;;;;31.88;21.92;;;10.40;99.90;;;;;;5064828;28;20040;-52
2021/10/16 06:28:37;;;;;;;30.27;21.63;;;10.40;99.90;;;;;;5086262;28;20042;-53
2021/10/16 06:31:03;;;;;;;26.13;17.13;;;10.40;99.90;;;;;;5070676;28;20032;-53
2021/10/16 06:33:30;;;;;;;26.95;18.10;;;10.30;99.90;;;;;;5052603;28;20037;-52
2021/10/16 06:35:59;;;;;;;23.30;15.77;;;10.30;99.90;;;;;;5052598;28;20059;-52
2021/10/16 06:38:25;;;;;;;31.70;19.38;;;10.30;99.90;;;;;;5071171;28;20037;-53
2021/10/16 06:40:51;;;;;;;36.72;23.20;;;10.30;99.90;;;;;;5067436;28;20039;-52
2021/10/16 06:43:16;;;;;;;33.58;19.95;;;10.30;99.90;;;;;;5079742;28;20127;-54
2021/10/16 06:45:42;;;;;;;34.47;21.38;;;10.30;99.90;;;;;;5067054;28;20102;-53
2021/10/16 06:48:08;;;;;;;33.47;21.88;;;10.30;99.90;;;;;;5068993;28;20099;-53
2021/10/16 06:50:34;;;;;;;28.40;16.90;;;10.40;99.90;;;;;;5034616;28;20040;-53
2021/10/16 06:53:00;;;;;;;33.40;23.13;;;10.10;99.90;;;;;;5068971;28;20507;-52
2021/10/16 06:55:25;;;;;;;34.53;23.13;;;10.20;99.90;;;;;;5067066;28;20365;-52
2021/10/16 06:57:51;;;;;;;33.15;23.17;;;10.40;99.90;;;;;;5070081;28;20480;-53
2021/10/16 07:00:17;;;;;;;30.60;19.80;;;10.60;99.90;;;;;;5071282;28;20029;-53
2021/10/16 07:02:42;;;;;;;34.85;24.60;;;10.50;99.90;;;;;;5070508;28;20111;-53
2021/10/16 07:05:09;;;;;;;29.95;21.95;;;10.60;99.90;;;;;;5071460;28;20056;-53
2021/10/16 07:07:35;;;;;;;29.85;21.35;;;10.70;99.90;;;;;;5070337;28;20391;-52
2021/10/16 07:10:00;;;;;;;32.13;22.77;;;10.60;99.90;;;;;;5069380;28;20116;-53
2021/10/16 07:12:27;;;;;;;33.42;23.55;;;10.70;99.90;;;;;;5071474;28;20032;-53
2021/10/16 07:14:53;;;;;;;30.33;21.90;;;10.70;99.90;;;;;;5070810;28;20051;-52
2021/10/16 07:17:18;;;;;;;30.77;22.70;;;10.90;99.90;;;;;;5051618;28;20048;-53
2021/10/16 07:19:44;;;;;;;29.00;21.40;;;11.00;99.90;;;;;;5070552;28;20548;-53
2021/10/16 07:22:10;;;;;;;28.30;20.13;;;10.90;99.90;;;;;;5051841;28;20052;-49
2021/10/16 07:24:36;;;;;;;28.60;21.38;;;10.90;99.90;;;;;;5071160;28;20479;-48
2021/10/16 07:27:02;;;;;;;22.85;15.20;;;11.00;99.90;;;;;;5051348;28;20032;-48
2021/10/16 07:29:28;;;;;;;30.45;22.55;;;10.80;99.90;;;;;;5074303;28;20050;-49
2021/10/16 07:31:54;;;;;;;34.30;23.25;;;10.90;99.90;;;;;;5074286;28;20077;-51
2021/10/16 07:34:20;;;;;;;30.73;22.48;;;10.90;99.90;;;;;;5074985;28;20029;-52
2021/10/16 07:36:47;;;;;;;28.27;18.85;;;10.80;99.90;;;;;;5055510;28;20045;-52
2021/10/16 07:39:13;;;;;;;30.80;22.55;;;10.80;99.90;;;;;;5069465;28;20049;-51
2021/10/16 07:41:40;;;;;;;25.20;16.83;;;10.90;99.90;;;;;;5074974;28;20028;-52
2021/10/16 07:44:07;;;;;;;28.63;20.73;;;10.80;99.90;;;;;;5056154;28;20488;-52
2021/10/16 07:46:33;;;;;;;24.23;19.15;;;10.90;99.90;;;;;;5074633;28;20484;-52
2021/10/16 07:48:59;;;;;;;29.80;22.58;;;10.80;99.90;;;;;;5074360;28;20107;-51
2021/10/16 07:51:25;;;;;;;27.20;19.02;;;10.60;99.90;;;;;;5073275;28;20603;-51
2021/10/16 07:53:51;;;;;;;29.95;20.80;;;10.70;99.90;;;;;;5088926;28;20039;-51
2021/10/16 07:56:17;;;;;;;28.08;19.45;;;10.70;99.90;;;;;;5074232;28;20495;-51
2021/10/16 07:58:43;;;;;;;30.20;22.77;;;10.70;99.90;;;;;;5073858;28;20412;-53
2021/10/16 08:01:09;;;;;;;28.25;21.15;;;10.80;99.90;;;;;;5074281;28;20036;-52
2021/10/16 08:03:36;;;;;;;27.42;19.33;;;10.80;99.90;;;;;;5074554;28;20027;-52
2021/10/16 08:06:03;;;;;;;27.05;17.10;;;10.80;99.90;;;;;;5073432;28;20044;-51
2021/10/16 08:08:29;;;;;;;26.92;21.48;;;10.80;99.90;;;;;;5074428;28;20097;-52
2021/10/16 08:10:55;;;;;;;33.10;20.50;;;10.80;99.90;;;;;;5074077;28;20483;-52
2021/10/16 08:13:22;;;;;;;24.95;16.02;;;10.90;99.90;;;;;;5073226;28;20107;-52
2021/10/16 08:15:48;;;;;;;28.05;19.80;;;10.80;99.90;;;;;;5053301;28;20036;-58
2021/10/16 08:18:14;;;;;;;29.50;22.10;;;10.90;99.90;;;;;;5074074;28;20079;-53
2021/10/16 08:20:40;;;;;;;22.65;16.08;;;11.10;99.90;;;;;;5021538;28;20043;-53
2021/10/16 08:23:07;;;;;;;28.50;21.20;;;11.10;99.90;;;;;;5073454;28;20036;-54
2021/10/16 08:25:33;;;;;;;26.75;20.77;;;11.20;99.90;;;;;;5073590;28;20040;-54
2021/10/16 08:28:05;;;;;;;27.65;18.77;;;11.30;99.90;;;;;;5073568;28;20067;-53
2021/10/16 08:30:31;;;;;;;26.73;20.67;;;11.40;99.90;;;;;;5074008;28;20472;-54
2021/10/16 08:32:57;;;;;;;32.05;22.08;;;11.60;99.90;;;;;;5037501;28;20071;-53
2021/10/16 08:35:22;;;;;;;27.17;20.95;;;11.80;99.90;;;;;;5073142;28;20096;-52
2021/10/16 08:37:48;;;;;;;26.50;20.17;;;12.00;99.90;;;;;;5071689;28;20032;-53
2021/10/16 08:40:14;;;;;;;32.60;25.42;;;12.10;99.90;;;;;;5053817;28;20071;-52
2021/10/16 08:42:40;;;;;;;24.98;20.67;;;12.30;99.90;;;;;;5073811;28;20447;-54
2021/10/16 08:45:06;;;;;;;26.08;20.48;;;12.50;99.90;;;;;;5054280;28;20048;-53
2021/10/16 08:47:37;;;;;;;28.50;20.63;;;12.40;99.90;;;;;;5073037;28;20024;-54
2021/10/16 08:50:08;;;;;;;28.05;21.05;;;12.40;99.90;;;;;;5072892;28;20035;-52
2021/10/16 08:52:35;;;;;;;29.00;21.65;;;12.40;99.90;;;;;;5051150;28;20033;-51
2021/10/16 08:55:01;;;;;;;26.33;20.38;;;12.60;99.90;;;;;;5072712;28;20063;-54
2021/10/16 08:57:38;;;;;;;24.92;19.13;;;12.50;99.90;;;;;;5054514;28;20052;-53
2021/10/16 09:00:35;;;;;;;26.23;19.98;;;12.30;99.90;;;;;;5073196;28;20149;-53
2021/10/16 09:03:16;;;;;;;24.25;18.02;;;12.60;99.90;;;;;;5072981;28;20029;-53
2021/10/16 09:05:41;;;;;;;27.77;20.65;;;12.60;99.90;;;;;;5072511;28;20048;-52
2021/10/16 09:08:36;;;;;;;26.65;19.40;;;12.80;99.90;;;;;;5071119;28;20782;-55
2021/10/16 09:11:17;;;;;;;26.02;19.65;;;12.70;99.90;;;;;;5072452;28;20024;-54
2021/10/16 09:14:05;;;;;;;23.30;17.80;;;12.80;99.90;;;;;;5050051;28;20041;-53
2021/10/16 09:16:39;;;;;;;24.90;18.35;;;12.80;99.90;;;;;;5050512;28;20082;-54
2021/10/16 09:19:09;;;;;;;30.17;22.23;;;12.90;99.90;;;;;;5049919;28;20044;-53
2021/10/16 09:21:41;;;;;;;29.75;20.40;;;13.00;99.90;;;;;;5050288;28;20033;-53
2021/10/16 09:24:08;;;;;;;23.67;18.25;;;13.00;99.90;;;;;;5033209;28;20040;-53
2021/10/16 09:26:36;;;;;;;25.70;19.90;;;13.10;99.90;;;;;;5047891;28;20067;-53
2021/10/16 09:29:04;;;;;;;24.77;17.48;;;13.20;99.90;;;;;;5049714;28;20635;-54
2021/10/16 09:31:52;;;;;;;24.63;18.30;;;13.10;99.90;;;;;;5050063;28;20630;-53
2021/10/16 09:34:34;;;;;;;23.10;17.00;;;13.20;99.90;;;;;;5049401;28;20037;-54
2021/10/16 09:37:11;;;;;;;19.55;15.77;;;13.20;99.90;;;;;;5046519;28;20048;-50
2021/10/16 09:39:44;;;;;;;23.88;17.40;;;13.10;99.90;;;;;;5049305;28;20036;-50
2021/10/16 09:42:11;;;;;;;22.88;17.67;;;13.30;99.90;;;;;;5042206;28;20033;-50
2021/10/16 09:44:39;;;;;;;24.05;19.23;;;13.30;99.90;;;;;;5060279;28;20032;-48
2021/10/16 09:47:05;;;;;;;23.33;17.73;;;13.20;99.90;;;;;;5071261;28;20036;-48
2021/10/16 09:49:40;;;;;;;18.83;12.75;;;13.40;99.90;;;;;;5036411;28;20086;-47
2021/10/16 09:52:08;;;;;;;22.75;17.35;;;13.20;99.90;;;;;;5071118;28;20063;-54
2021/10/16 09:54:35;;;;;;;34.80;19.83;;;13.40;99.90;;;;;;5072485;28;20024;-48
2021/10/16 09:57:06;;;;;;;22.10;17.60;;;13.50;99.90;;;;;;5071539;28;20063;-50
2021/10/16 09:59:33;;;;;;;22.20;17.43;;;13.60;99.90;;;;;;5036340;28;20097;-48
2021/10/16 10:02:01;;;;;;;21.70;16.65;;;13.80;99.90;;;;;;5053418;28;20328;-50
2021/10/16 10:04:30;;;;;;;23.45;17.08;;;14.10;99.90;;;;;;5071455;28;20032;-50
2021/10/16 10:06:59;;;;;;;21.50;17.85;;;14.00;99.90;;;;;;5071295;28;20089;-49
2021/10/16 10:09:27;;;;;;;21.30;16.88;;;14.20;99.90;;;;;;5050383;28;20080;-49
2021/10/16 10:11:53;;;;;;;20.55;16.38;;;14.00;99.90;;;;;;5072036;28;20560;-51
2021/10/16 10:14:20;;;;;;;24.38;19.15;;;14.40;99.90;;;;;;5070976;28;20033;-50
2021/10/16 10:17:01;;;;;;;24.13;18.80;;;14.70;99.90;;;;;;5071109;28;20072;-57
2021/10/16 10:19:29;;;;;;;24.75;15.68;;;15.00;99.90;;;;;;5053213;28;20025;-50
2021/10/16 10:21:56;;;;;;;23.73;16.65;;;15.10;99.90;;;;;;5071053;28;20094;-49
2021/10/16 10:24:39;;;;;;;17.42;13.43;;;15.20;99.90;;;;;;5071300;28;20495;-50
2021/10/16 10:27:07;;;;;;;17.92;15.57;;;14.90;99.90;;;;;;5069372;28;20036;-52
2021/10/16 10:29:36;;;;;;;22.02;15.70;;;;;;;;;;5059288;28;20114;-50
2021/10/16 10:32:03;;;;;;;23.38;18.38;;;;;;;;;;5070736;28;20028;-50
2021/10/16 10:34:31;;;;;;;26.27;19.70;;;;;;;;;;5070552;28;20081;-52
2021/10/16 10:37:06;;;;;;;20.10;16.20;;;14.40;99.90;;;;;;5069503;28;20052;-51
2021/10/16 10:39:32;;;;;;;20.38;16.45;;;14.40;99.90;;;;;;5070642;28;20032;-52
2021/10/16 10:42:13;;;;;;;20.98;16.85;;;14.30;99.90;;;;;;5070876;28;20031;-50
2021/10/16 10:44:47;;;;;;;17.98;15.55;;;14.50;99.90;;;;;;5051377;28;20085;-50
2021/10/16 10:47:28;;;;;;;21.50;15.88;;;14.60;99.90;;;;;;5068851;28;20035;-49
2021/10/16 10:49:56;;;;;;;19.33;15.80;;;14.70;99.90;;;;;;5069689;28;20039;-58
2021/10/16 10:52:24;;;;;;;21.05;15.75;;;14.70;99.90;;;;;;5048691;28;20033;-49
2021/10/16 10:55:03;;;;;;;19.33;15.73;;;14.90;99.90;;;;;;5070403;28;20074;-49
2021/10/16 10:57:52;;;;;;;22.77;14.63;;;15.00;99.90;;;;;;5068712;28;20040;-48
2021/10/16 11:00:38;;;;;;;18.27;14.35;;;;;;;;;;5070810;28;20115;-47
2021/10/16 11:03:26;;;;;;;16.30;13.30;;;15.20;99.90;;;;;;5070444;28;20452;-52
2021/10/16 11:05:51;;;;;;;16.55;13.55;;;15.10;99.90;;;;;;5067808;28;20041;-50
2021/10/16 11:08:17;;;;;;;21.48;15.15;;;15.10;99.90;;;;;;5070540;28;20027;-58
2021/10/16 11:10:43;;;;;;;18.98;13.80;;;14.90;99.90;;;;;;5070230;28;20438;-58
2021/10/16 11:13:18;;;;;;;18.98;14.65;;;15.00;99.90;;;;;;5070602;28;20058;-56
2021/10/16 11:15:54;;;;;;;19.15;14.80;;;15.10;99.90;;;;;;5069698;28;20028;-57
2021/10/16 11:18:20;;;;;;;22.75;15.48;;;15.10;99.90;;;;;;5069450;28;20427;-56
2021/10/16 11:20:46;;;;;;;18.35;13.93;;;15.10;99.90;;;;;;5070347;28;20077;-56
2021/10/16 11:23:23;;;;;;;20.33;15.20;;;15.10;99.90;;;;;;5047476;28;20090;-55
2021/10/16 11:26:00;;;;;;;17.48;13.82;;;15.00;99.90;;;;;;5048373;28;20039;-56
2021/10/16 11:28:27;;;;;;;15.13;12.10;;;14.80;99.90;;;;;;5069911;28;20025;-57
2021/10/16 11:30:54;;;;;;;18.67;12.48;;;14.80;99.90;;;;;;5067265;28;20444;-56
2021/10/16 11:33:23;;;;;;;20.45;13.85;;;14.80;99.90;;;;;;5070187;28;20086;-56
2021/10/16 11:35:52;;;;;;;16.42;11.52;;;14.90;99.90;;;;;;5069982;28;20023;-55
2021/10/16 11:38:23;;;;;;;15.50;12.70;;;14.90;99.90;;;;;;5070622;28;20472;-55
2021/10/16 11:40:50;;;;;;;18.38;14.10;;;15.00;99.90;;;;;;5070214;28;20060;-56
2021/10/16 11:43:47;;;;;;;16.95;12.60;;;15.00;99.90;;;;;;5068761;28;20036;-56
2021/10/16 11:46:23;;;;;;;15.30;11.82;;;14.70;99.90;;;;;;4997199;28;20114;-55
2021/10/16 11:48:50;;;;;;;17.33;13.05;;;14.90;99.90;;;;;;4994526;28;20157;-56
2021/10/16 11:51:16;;;;;;;19.73;14.00;;;14.90;99.90;;;;;;4955629;28;20506;-56
2021/10/16 11:53:44;;;;;;;13.75;10.10;;;14.90;99.90;;;;;;4972656;28;20049;-56
2021/10/16 11:56:13;;;;;;;20.83;16.35;;;14.90;99.90;;;;;;4995635;28;20069;-55
2021/10/16 11:58:40;;;;;;;18.15;13.50;;;15.20;99.90;;;;;;4996109;28;20137;-56
2021/10/16 12:01:07;;;;;;;17.83;12.25;;;;;;;;;;5000140;28;20569;-56
2021/10/16 12:03:40;;;;;;;17.98;13.85;;;15.30;99.90;;;;;;4979584;28;20445;-56
2021/10/16 12:06:17;;;;;;;16.65;12.43;;;15.20;99.90;;;;;;4976557;28;20050;-56
2021/10/16 12:08:59;;;;;;;15.52;11.73;;;15.50;99.90;;;;;;4977567;28;20128;-56
2021/10/16 12:11:29;;;;;;;16.20;11.88;;;15.50;99.90;;;;;;4979173;28;20081;-56
2021/10/16 12:13:57;;;;;;;20.38;13.13;;;15.80;99.90;;;;;;4981086;28;20034;-56
2021/10/16 12:16:25;;;;;;;17.95;14.98;;;15.80;99.90;;;;;;4984073;28;20042;-56
2021/10/16 12:19:03;;;;;;;20.63;15.63;;;15.60;99.90;;;;;;4983762;28;20034;-56
2021/10/16 12:21:40;;;;;;;14.43;11.73;;;15.80;99.90;;;;;;4984850;28;20057;-56
2021/10/16 12:24:17;;;;;;;19.73;13.40;;;16.40;99.90;;;;;;5049770;28;20040;-56
2021/10/16 12:26:46;;;;;;;16.20;11.52;;;16.50;99.90;;;;;;5049966;28;20041;-55
2021/10/16 12:29:29;;;;;;;14.82;10.32;;;16.50;99.90;;;;;;5050498;28;20037;-56
2021/10/16 12:31:55;;;;;;;18.92;15.38;;;16.90;99.90;;;;;;5050805;28;20442;-56
2021/10/16 12:34:30;;;;;;;14.38;11.02;;;17.10;99.90;;;;;;5050308;28;20075;-56